createdAt,value
2023-08-30T00:02:48.996Z,64.15
2023-08-30T00:07:52.055Z,64.98
2023-08-30T00:12:55.377Z,65.41
2023-08-30T00:17:58.431Z,65.31
2023-08-30T00:23:01.600Z,65.51
2023-08-30T00:28:05.113Z,65.18
2023-08-30T00:33:08.061Z,65.29
2023-08-30T00:38:11.609Z,65.46
2023-08-30T00:43:15.261Z,65.51
2023-08-30T00:48:20.761Z,65.60
2023-08-30T00:53:24.019Z,65.71
2023-08-30T00:58:30.450Z,66.58
2023-08-30T01:03:33.748Z,67.13
2023-08-30T01:08:38.485Z,67.75
2023-08-30T01:13:53.179Z,67.66
2023-08-30T01:18:58.224Z,67.35
2023-08-30T01:24:04.401Z,67.55
2023-08-30T01:29:10.275Z,66.52
2023-08-30T01:34:14.688Z,66.82
2023-08-30T01:39:17.904Z,67.12
2023-08-30T01:44:21.273Z,66.83
2023-08-30T01:49:25.654Z,67.30
2023-08-30T01:54:30.221Z,67.20
2023-08-30T01:59:33.335Z,67.62
2023-08-30T02:04:36.375Z,68.18
2023-08-30T02:10:03.202Z,68.77
2023-08-30T02:15:08.682Z,68.19
2023-08-30T02:20:12.405Z,67.88
2023-08-30T02:25:15.674Z,67.46
2023-08-30T02:30:18.650Z,67.46
2023-08-30T02:35:21.741Z,67.19
2023-08-30T02:40:24.669Z,66.96
2023-08-30T02:45:27.663Z,66.99
2023-08-30T02:50:30.642Z,66.98
2023-08-30T02:55:33.644Z,66.38
2023-08-30T03:00:36.677Z,65.78
2023-08-30T03:05:39.662Z,65.87
2023-08-30T03:10:42.668Z,65.71
2023-08-30T03:15:46.454Z,65.27
2023-08-30T03:20:49.498Z,65.42
2023-08-30T03:25:53.119Z,65.33
2023-08-30T03:30:56.182Z,64.92
2023-08-30T03:36:00.386Z,64.52
2023-08-30T03:41:04.926Z,64.44
2023-08-30T03:46:08.201Z,64.17
2023-08-30T03:51:11.328Z,64.31
2023-08-30T03:56:14.344Z,64.06
2023-08-30T04:01:17.428Z,64.30
2023-08-30T04:06:20.490Z,64.26
2023-08-30T04:11:23.775Z,64.27
2023-08-30T04:16:27.123Z,64.28
2023-08-30T04:21:30.191Z,64.36
2023-08-30T04:26:33.203Z,64.52
2023-08-30T04:31:36.199Z,64.44
2023-08-30T04:36:39.821Z,64.00
2023-08-30T04:41:42.839Z,63.99
2023-08-30T04:46:45.862Z,63.46
2023-08-30T04:51:49.145Z,63.02
2023-08-30T04:56:52.692Z,63.04
2023-08-30T05:01:55.780Z,62.96
2023-08-30T05:06:58.786Z,63.17
2023-08-30T05:12:02.042Z,63.49
2023-08-30T05:17:05.410Z,63.05
2023-08-30T05:22:08.837Z,63.59
2023-08-30T05:27:12.965Z,63.40
2023-08-30T05:32:15.979Z,63.04
2023-08-30T05:37:18.879Z,62.96
2023-08-30T05:42:21.893Z,62.82
2023-08-30T05:47:25.109Z,62.99
2023-08-30T05:52:28.111Z,62.07
2023-08-30T05:57:34.753Z,61.92
2023-08-30T06:02:37.794Z,62.15
2023-08-30T06:07:40.832Z,60.77
2023-08-30T06:12:43.916Z,60.39
2023-08-30T06:17:47.804Z,64.01
2023-08-30T06:22:51.162Z,61.61
2023-08-30T06:28:00.176Z,60.42
2023-08-30T06:33:03.848Z,64.19
2023-08-30T06:38:07.488Z,63.42
2023-08-30T06:43:10.761Z,62.39
2023-08-30T06:48:14.484Z,61.41
2023-08-30T06:53:17.600Z,61.65
2023-08-30T06:58:20.609Z,61.72
2023-08-30T07:03:23.777Z,61.67
2023-08-30T07:08:28.048Z,61.13
2023-08-30T07:13:31.050Z,61.77
2023-08-30T07:18:34.074Z,60.76
2023-08-30T07:23:37.073Z,62.20
2023-08-30T07:28:40.079Z,61.48
2023-08-30T07:33:43.083Z,60.40
2023-08-30T07:38:46.092Z,60.21
2023-08-30T07:43:49.088Z,63.36
2023-08-30T07:48:52.005Z,61.15
2023-08-30T07:53:54.834Z,58.68
2023-08-30T07:58:58.577Z,61.67
2023-08-30T08:04:07.131Z,64.32
2023-08-30T08:09:10.999Z,61.42
2023-08-30T08:14:14.769Z,58.47
2023-08-30T08:19:18.024Z,61.21
2023-08-30T08:24:21.034Z,63.05
2023-08-30T08:29:24.041Z,60.40
2023-08-30T08:34:27.056Z,59.17
2023-08-30T08:39:31.888Z,63.25
2023-08-30T08:44:36.949Z,61.27
2023-08-30T08:49:40.978Z,58.76
2023-08-30T08:54:45.216Z,60.52
2023-08-30T08:59:48.368Z,63.84
2023-08-30T09:04:53.985Z,61.46
2023-08-30T09:09:57.110Z,59.97
2023-08-30T09:15:00.138Z,58.02
2023-08-30T09:20:14.083Z,61.52
2023-08-30T09:25:26.293Z,63.12
2023-08-30T09:30:30.723Z,61.11
2023-08-30T09:35:33.961Z,59.94
2023-08-30T09:40:36.963Z,58.63
2023-08-30T09:45:40.422Z,60.73
2023-08-30T09:50:46.463Z,63.56
2023-08-30T09:55:50.513Z,61.30
2023-08-30T10:00:54.178Z,60.01
2023-08-30T10:05:57.886Z,58.81
2023-08-30T10:11:01.558Z,61.61
2023-08-30T10:16:06.096Z,65.20
2023-08-30T10:21:13.815Z,62.98
2023-08-30T10:26:18.455Z,61.44
2023-08-30T10:31:22.228Z,60.12
2023-08-30T10:36:27.342Z,58.68
2023-08-30T10:41:30.444Z,60.74
2023-08-30T10:46:35.227Z,65.82
2023-08-30T10:51:42.510Z,64.08
2023-08-30T10:57:02.820Z,62.58
2023-08-30T11:02:06.338Z,61.01
2023-08-30T11:07:09.631Z,57.19
2023-08-30T11:12:13.269Z,58.93
2023-08-30T11:17:19.235Z,64.14
2023-08-30T11:22:22.554Z,62.09
2023-08-30T11:27:25.465Z,60.40
2023-08-30T11:32:28.469Z,56.92
2023-08-30T11:37:31.646Z,59.73
2023-08-30T11:42:35.226Z,63.87
2023-08-30T11:47:38.538Z,62.07
2023-08-30T11:52:42.324Z,60.25
2023-08-30T11:57:46.502Z,57.83
2023-08-30T12:02:49.753Z,58.99
2023-08-30T12:07:52.898Z,64.43
2023-08-30T12:12:56.205Z,62.20
2023-08-30T12:18:07.727Z,58.74
2023-08-30T12:23:24.031Z,59.58
2023-08-30T12:28:28.250Z,64.94
2023-08-30T12:33:32.720Z,64.28
2023-08-30T12:38:35.654Z,62.38
2023-08-30T12:43:38.517Z,60.07
2023-08-30T12:48:42.544Z,58.89
2023-08-30T12:53:45.557Z,62.51
2023-08-30T12:58:48.563Z,63.59
2023-08-30T13:03:51.573Z,61.35
2023-08-30T13:08:54.580Z,59.69
2023-08-30T13:13:59.727Z,60.17
2023-08-30T13:19:02.737Z,62.68
2023-08-30T13:24:06.601Z,59.94
2023-08-30T13:29:09.500Z,60.39
2023-08-30T13:34:12.473Z,64.66
2023-08-30T13:39:16.202Z,62.59
2023-08-30T13:44:19.213Z,61.12
2023-08-30T13:49:22.418Z,59.17
2023-08-30T13:54:26.004Z,60.19
2023-08-30T13:59:29.961Z,63.98
2023-08-30T14:04:39.223Z,62.84
2023-08-30T14:09:42.339Z,61.10
2023-08-30T14:14:45.332Z,61.45
2023-08-30T14:19:48.830Z,60.74
2023-08-30T14:25:03.312Z,59.13
2023-08-30T14:30:14.932Z,62.22
2023-08-30T14:35:18.251Z,63.30
2023-08-30T14:40:21.259Z,60.90
2023-08-30T14:45:24.397Z,58.10
2023-08-30T14:50:27.397Z,61.44
2023-08-30T14:55:30.862Z,65.45
2023-08-30T15:00:33.942Z,63.02
2023-08-30T15:05:37.112Z,61.30
2023-08-30T15:10:40.573Z,60.60
2023-08-30T15:15:43.645Z,59.99
2023-08-30T15:20:48.696Z,57.96
2023-08-30T15:25:52.108Z,60.70
2023-08-30T15:30:56.148Z,65.77
2023-08-30T15:35:59.789Z,64.90
2023-08-30T15:41:07.575Z,62.03
2023-08-30T15:46:12.837Z,61.81
2023-08-30T15:51:23.827Z,62.61
2023-08-30T15:56:27.774Z,62.58
2023-08-30T16:01:31.055Z,62.52
2023-08-30T16:06:34.183Z,62.65
2023-08-30T16:11:37.288Z,62.67
2023-08-30T16:16:42.431Z,61.69
2023-08-30T16:21:46.146Z,61.53
2023-08-30T16:26:52.076Z,62.23
2023-08-30T16:31:55.977Z,61.62
2023-08-30T16:36:58.994Z,62.07
2023-08-30T16:42:02.098Z,62.06
2023-08-30T16:47:05.762Z,61.97
2023-08-30T16:52:10.459Z,61.84
2023-08-30T16:57:13.470Z,61.37
2023-08-30T17:02:16.431Z,62.42
2023-08-30T17:07:19.485Z,63.17
2023-08-30T17:12:22.590Z,63.19
2023-08-30T17:17:25.593Z,63.57
2023-08-30T17:22:28.711Z,62.82
2023-08-30T17:27:31.759Z,63.09
2023-08-30T17:32:35.260Z,63.00
2023-08-30T17:37:38.354Z,62.14
2023-08-30T17:42:41.462Z,61.45
2023-08-30T17:47:44.603Z,62.60
2023-08-30T17:52:47.678Z,62.85
2023-08-30T17:57:50.776Z,63.42
2023-08-30T18:02:53.846Z,63.59
2023-08-30T18:07:58.424Z,63.88
2023-08-30T18:13:01.433Z,62.75
2023-08-30T18:18:06.171Z,63.69
2023-08-30T18:23:09.187Z,63.55
2023-08-30T18:28:13.223Z,63.89
2023-08-30T18:33:16.888Z,63.47
2023-08-30T18:38:19.963Z,63.42
2023-08-30T18:43:23.568Z,64.29
2023-08-30T18:48:26.574Z,63.24
2023-08-30T18:53:29.579Z,63.58
2023-08-30T18:58:33.016Z,64.08
2023-08-30T19:03:36.238Z,63.36
2023-08-30T19:08:39.528Z,63.32
2023-08-30T19:13:43.249Z,64.04
2023-08-30T19:18:47.903Z,63.88
2023-08-30T19:23:52.130Z,64.42
2023-08-30T19:28:55.754Z,64.85
2023-08-30T19:33:59.478Z,64.83
2023-08-30T19:39:04.942Z,64.30
2023-08-30T19:44:07.946Z,63.48
2023-08-30T19:49:11.166Z,62.48
2023-08-30T19:54:14.370Z,62.66
2023-08-30T19:59:17.788Z,62.42
2023-08-30T20:04:21.109Z,62.85
2023-08-30T20:09:24.726Z,63.16
2023-08-30T20:14:28.091Z,62.94
2023-08-30T20:19:31.185Z,62.49
2023-08-30T20:24:34.560Z,61.99
2023-08-30T20:29:37.669Z,62.28
2023-08-30T20:34:41.593Z,62.49
2023-08-30T20:39:44.603Z,62.11
2023-08-30T20:44:47.609Z,61.84
2023-08-30T20:49:50.922Z,61.67
2023-08-30T20:54:54.958Z,61.50
2023-08-30T20:59:57.961Z,61.16
2023-08-30T21:05:02.036Z,61.03
2023-08-30T21:10:05.816Z,60.91
2023-08-30T21:15:09.632Z,61.10
2023-08-30T21:20:12.666Z,61.47
2023-08-30T21:25:15.666Z,61.93
2023-08-30T21:30:18.791Z,62.35
2023-08-30T21:35:21.771Z,62.29
2023-08-30T21:40:24.795Z,62.58
2023-08-30T21:45:28.502Z,62.53
2023-08-30T21:50:31.824Z,62.22
2023-08-30T21:55:34.829Z,62.63
2023-08-30T22:00:38.246Z,62.64
2023-08-30T22:05:41.569Z,62.59
2023-08-30T22:10:44.506Z,63.53
2023-08-30T22:15:47.466Z,63.00
2023-08-30T22:20:52.934Z,62.67
2023-08-30T22:25:55.954Z,62.45
2023-08-30T22:30:59.097Z,62.30
2023-08-30T22:36:05.744Z,62.26
2023-08-30T22:41:08.746Z,61.80
2023-08-30T22:46:11.753Z,61.82
2023-08-30T22:51:14.864Z,61.78
2023-08-30T22:56:18.977Z,61.82
2023-08-30T23:01:22.021Z,61.90
2023-08-30T23:06:25.758Z,62.13
2023-08-30T23:11:28.733Z,61.89
2023-08-30T23:16:31.843Z,61.68
2023-08-30T23:21:35.269Z,61.57
2023-08-30T23:26:38.882Z,61.71
2023-08-30T23:31:41.754Z,62.19
2023-08-30T23:36:44.888Z,61.97
2023-08-30T23:41:48.309Z,61.90
2023-08-30T23:46:51.310Z,62.14
2023-08-30T23:51:55.139Z,62.11
2023-08-30T23:56:58.747Z,61.90
